Time;durP1;ratioP1;P1;durP2;ratioP2;P2;SDS_P1;SDS_P2;PMS_P1;PMS_P2;Temp;Humidity;BMP_temperature;BMP_pressure;BME280_temperature;BME280_humidity;BME280_pressure;Samples;Min_cycle;Max_cycle;Signal;HPM_P1;HPM_P2
2022/04/05 00:00:01;;;;;;;30.83;13.15;;;11.30;99.90;;;11.52;100.00;100439.22;5073792;28;20048;-68
2022/04/05 00:02:31;;;;;;;29.98;12.90;;;11.30;99.90;;;11.56;100.00;100438.28;5073518;28;20410;-68
2022/04/05 00:05:00;;;;;;;34.15;13.85;;;11.30;99.90;;;11.52;100.00;100441.88;5073670;28;20044;-68
2022/04/05 00:07:29;;;;;;;33.42;14.13;;;11.30;99.90;;;11.43;100.00;100439.38;5072386;28;20048;-68
2022/04/05 00:09:57;;;;;;;33.92;13.93;;;11.20;99.90;;;11.52;100.00;100443.63;5073544;28;20041;-68
2022/04/05 00:12:27;;;;;;;34.58;15.05;;;11.30;99.90;;;11.49;100.00;100443.69;5073320;28;20044;-68
2022/04/05 00:14:56;;;;;;;34.30;15.80;;;11.20;99.90;;;11.42;100.00;100456.16;5073569;28;20064;-68
2022/04/05 00:17:24;;;;;;;42.42;16.02;;;11.20;99.90;;;11.37;100.00;100450.06;5073481;28;20032;-68
2022/04/05 00:19:53;;;;;;;39.88;15.32;;;11.20;99.90;;;11.34;100.00;100451.88;5072208;28;20071;-68
2022/04/05 00:22:21;;;;;;;34.10;16.10;;;11.10;99.90;;;11.41;100.00;100456.19;5073401;28;20132;-68
2022/04/05 00:24:50;;;;;;;39.80;16.85;;;11.10;99.90;;;11.42;100.00;100448.19;5071923;28;20044;-68
2022/04/05 00:27:18;;;;;;;33.60;16.90;;;11.20;99.90;;;11.33;100.00;100432.47;5073172;28;20119;-68
2022/04/05 00:29:48;;;;;;;38.03;18.00;;;11.20;99.90;;;11.40;100.00;100465.03;5072005;28;20052;-68
2022/04/05 00:32:17;;;;;;;43.97;18.75;;;11.20;99.90;;;11.43;100.00;100449.97;5073682;28;20048;-68
2022/04/05 00:34:45;;;;;;;39.67;18.95;;;11.20;99.90;;;11.40;100.00;100463.22;5073078;28;20120;-68
2022/04/05 00:37:14;;;;;;;45.60;18.80;;;11.20;99.90;;;11.43;100.00;100457.91;5073039;28;20109;-68
2022/04/05 00:39:42;;;;;;;43.35;18.30;;;11.20;99.90;;;11.43;100.00;100460.56;5073288;28;20032;-68
2022/04/05 00:42:11;;;;;;;40.35;17.15;;;11.20;99.90;;;11.38;100.00;100457.09;5073010;28;20044;-68
2022/04/05 00:44:39;;;;;;;31.13;15.40;;;11.20;99.90;;;11.35;100.00;100457.16;5071980;28;20118;-68
2022/04/05 00:47:17;;;;;;;37.17;15.65;;;11.10;99.90;;;11.28;100.00;100449.31;5078780;28;20041;-68
2022/04/05 00:49:47;;;;;;;40.03;14.38;;;11.10;99.90;;;11.34;100.00;100455.38;5079597;28;20040;-68
2022/04/05 00:52:18;;;;;;;29.40;13.80;;;11.10;99.90;;;11.28;100.00;100451.97;5079469;28;20057;-68
2022/04/05 00:54:49;;;;;;;32.03;12.30;;;11.00;99.90;;;11.21;100.00;100452.91;5079836;28;20052;-68
2022/04/05 00:57:19;;;;;;;28.83;12.57;;;11.00;99.90;;;11.27;100.00;100464.31;5079749;28;20584;-68
2022/04/05 00:59:50;;;;;;;30.77;12.90;;;11.00;99.90;;;11.18;100.00;100460.91;5079588;28;20067;-68
2022/04/05 01:02:22;;;;;;;32.95;13.35;;;11.00;99.90;;;11.15;100.00;100474.22;5078565;28;20053;-68
2022/04/05 01:04:51;;;;;;;23.73;11.73;;;10.90;99.90;;;11.13;100.00;100460.97;5079516;28;20036;-68
2022/04/05 01:07:22;;;;;;;29.60;11.98;;;10.90;99.90;;;11.23;100.00;100462.59;5079457;28;20470;-68
2022/04/05 01:09:53;;;;;;;29.70;11.82;;;10.90;99.90;;;11.13;100.00;100460.13;5079737;28;20048;-68
2022/04/05 01:12:23;;;;;;;29.70;12.27;;;10.90;99.90;;;11.02;100.00;100468.19;5079382;28;20502;-68
2022/04/05 01:14:53;;;;;;;28.13;11.23;;;10.80;99.90;;;11.06;100.00;100459.31;5079333;28;20068;-68
2022/04/05 01:17:22;;;;;;;24.52;12.43;;;10.80;99.90;;;11.20;100.00;100464.41;5079345;28;20579;-68
2022/04/05 01:19:52;;;;;;;25.93;13.27;;;10.90;99.90;;;11.10;100.00;100465.44;5079242;28;20079;-68
2022/04/05 01:22:20;;;;;;;32.72;13.68;;;10.80;99.90;;;11.10;100.00;100465.44;5079263;28;20557;-68
2022/04/05 01:24:51;;;;;;;29.65;13.60;;;10.90;99.90;;;11.16;100.00;100468.88;5079549;28;20040;-68
2022/04/05 01:27:19;;;;;;;;;;;10.90;99.90;;;11.00;100.00;100443.50;5079732;28;20048;-68
2022/04/05 01:29:49;;;;;;;25.17;13.50;;;10.90;99.90;;;11.12;100.00;100464.53;5079236;28;19920;-68
2022/04/05 01:32:17;;;;;;;27.70;14.57;;;10.90;99.90;;;11.09;100.00;100469.00;5079402;28;20033;-68
2022/04/05 01:34:46;;;;;;;29.17;14.55;;;10.90;99.90;;;11.10;100.00;100463.66;5079214;28;20040;-68
2022/04/05 01:37:14;;;;;;;26.10;14.63;;;10.90;99.90;;;11.13;100.00;100479.50;5079152;28;20041;-69
2022/04/05 01:39:43;;;;;;;31.30;15.63;;;10.90;99.90;;;11.14;100.00;100460.09;5079392;28;20050;-68
2022/04/05 01:42:14;;;;;;;31.40;15.05;;;10.90;99.90;;;11.16;100.00;100455.66;5079059;28;20044;-69
2022/04/05 01:44:45;;;;;;;28.83;15.55;;;10.90;99.90;;;11.08;100.00;100452.22;5079438;28;20048;-69
2022/04/05 01:47:16;;;;;;;27.48;15.18;;;10.90;99.90;;;11.14;100.00;100459.22;5078112;28;20083;-69
2022/04/05 01:49:49;;;;;;;32.45;16.08;;;10.90;99.90;;;11.04;100.00;100445.22;5079074;28;20045;-69
2022/04/05 01:52:18;;;;;;;31.63;16.55;;;10.90;99.90;;;10.41;100.00;100329.66;5079159;28;20060;-68
2022/04/05 01:54:47;;;;;;;29.63;15.75;;;10.90;99.90;;;11.07;100.00;100452.25;5079281;28;20052;-68
2022/04/05 01:57:17;;;;;;;26.83;15.82;;;10.80;99.90;;;11.13;100.00;100450.38;5077416;28;20067;-68
2022/04/05 01:59:45;;;;;;;31.00;15.98;;;10.80;99.90;;;11.26;100.00;100440.50;5076150;28;20052;-69
2022/04/05 02:02:14;;;;;;;29.27;15.50;;;11.00;99.90;;;11.28;100.00;100449.31;5075998;28;20441;-69
2022/04/05 02:04:42;;;;;;;30.98;17.10;;;11.00;99.90;;;11.32;100.00;100446.63;5091530;28;20045;-68
2022/04/05 02:07:13;;;;;;;30.33;17.02;;;11.10;99.90;;;11.25;100.00;100444.03;5075934;28;20041;-69
2022/04/05 02:09:42;;;;;;;28.65;17.17;;;11.10;99.90;;;11.43;100.00;100436.72;5091538;28;20079;-68
2022/04/05 02:12:12;;;;;;;28.03;15.87;;;11.20;99.90;;;11.46;100.00;100447.25;5075446;28;20071;-69
2022/04/05 02:14:59;;;;;;;27.42;16.95;;;11.30;99.90;;;11.28;100.00;100444.00;5075620;28;20065;-69
2022/04/05 02:17:36;;;;;;;27.88;17.15;;;11.10;99.90;;;11.38;100.00;100446.50;5074475;28;20044;-69
2022/04/05 02:20:09;;;;;;;27.70;17.02;;;11.20;99.90;;;11.39;100.00;100452.66;5075772;28;20037;-69
2022/04/05 02:22:39;;;;;;;25.70;15.63;;;11.20;99.90;;;11.48;100.00;100444.59;5074489;28;20456;-69
2022/04/05 02:25:17;;;;;;;26.95;16.98;;;11.20;99.90;;;11.45;100.00;100442.00;5074334;28;20075;-69
2022/04/05 02:27:47;;;;;;;25.70;16.20;;;11.20;99.90;;;11.51;100.00;100449.84;5074356;28;20139;-69
2022/04/05 02:30:22;;;;;;;24.27;16.20;;;11.30;99.90;;;11.52;100.00;100452.47;5074102;28;20441;-70
2022/04/05 02:32:55;;;;;;;27.23;16.17;;;11.30;99.90;;;10.75;100.00;100352.13;5073976;28;20048;-70
2022/04/05 02:35:25;;;;;;;21.50;16.15;;;11.40;99.90;;;11.47;100.00;100443.72;5091325;28;20401;-70
2022/04/05 02:37:54;;;;;;;26.02;16.42;;;11.30;99.90;;;11.51;100.00;100442.78;5074058;28;20051;-70
2022/04/05 02:40:23;;;;;;;22.58;15.93;;;11.30;99.90;;;11.54;100.00;100442.72;5073752;28;20135;-71
2022/04/05 02:42:55;;;;;;;22.85;15.65;;;11.30;99.90;;;11.51;100.00;100426.00;5090890;28;20135;-70
2022/04/05 02:45:26;;;;;;;29.15;16.20;;;11.40;99.90;;;11.39;100.00;100442.97;5074172;28;20076;-70
2022/04/05 02:47:54;;;;;;;27.23;16.85;;;11.20;99.90;;;11.43;100.00;100439.38;5107506;28;20383;-70
2022/04/05 02:50:26;;;;;;;26.63;17.58;;;11.20;99.90;;;11.52;100.00;100444.53;5073805;28;20098;-70
2022/04/05 02:52:55;;;;;;;24.92;18.48;;;11.30;99.90;;;11.56;100.00;100438.28;5107711;28;20486;-70
2022/04/05 02:55:24;;;;;;;30.73;18.38;;;11.40;99.90;;;11.57;100.00;100440.06;5075021;28;20041;-70
2022/04/05 02:57:54;;;;;;;28.20;16.95;;;11.30;99.90;;;11.50;100.00;100422.47;5107552;28;20098;-70
2022/04/05 03:00:31;;;;;;;27.50;15.90;;;11.40;99.90;;;11.52;100.00;100428.63;5073716;28;20045;-70
2022/04/05 03:03:04;;;;;;;27.20;15.35;;;11.30;99.90;;;11.45;100.00;100403.16;5073870;28;20106;-70
2022/04/05 03:05:33;;;;;;;30.20;14.85;;;11.40;99.90;;;11.57;100.00;100432.09;5090465;28;20052;-70
2022/04/05 03:08:06;;;;;;;25.08;13.70;;;11.40;99.90;;;11.60;100.00;100436.47;5090395;28;20048;-70
2022/04/05 03:10:37;;;;;;;26.83;13.32;;;11.40;99.90;;;11.58;100.00;100438.25;5090261;28;20143;-70
2022/04/05 03:13:07;;;;;;;29.57;13.37;;;11.40;99.90;;;11.50;100.00;100434.84;5073381;28;20048;-70
2022/04/05 03:15:37;;;;;;;24.23;14.35;;;11.50;99.90;;;11.65;100.00;100430.22;5073463;28;20132;-70
2022/04/05 03:18:07;;;;;;;30.20;14.30;;;11.50;99.90;;;11.58;100.00;100431.19;5073399;28;20044;-71
2022/04/05 03:20:35;;;;;;;25.85;14.00;;;11.40;99.90;;;11.52;100.00;100427.75;5074496;28;20098;-70
2022/04/05 03:23:05;;;;;;;25.55;14.70;;;11.40;99.90;;;11.47;100.00;100430.50;5073232;28;20048;-71
2022/04/05 03:25:33;;;;;;;27.23;14.07;;;11.30;99.90;;;11.41;100.00;100425.28;5074138;28;20044;-70
2022/04/05 03:28:02;;;;;;;25.50;14.77;;;11.20;99.90;;;11.40;100.00;100414.72;5074004;28;20044;-71
2022/04/05 03:30:32;;;;;;;;;;;11.30;99.90;;;11.57;100.00;100428.56;5074561;28;20041;-71
2022/04/05 03:33:06;;;;;;;31.85;14.45;;;11.40;99.90;;;11.48;100.00;100429.56;5089877;28;20427;-70
2022/04/05 03:35:36;;;;;;;36.92;16.00;;;11.20;99.90;;;11.37;100.00;100396.22;5073239;28;20040;-70
2022/04/05 03:38:05;;;;;;;32.00;15.05;;;11.30;99.90;;;11.35;100.00;100408.59;5072980;28;20075;-71
2022/04/05 03:40:34;;;;;;;32.55;15.13;;;11.30;99.90;;;11.61;100.00;100424.97;5089936;28;20072;-71
2022/04/05 03:43:07;;;;;;;29.67;14.45;;;11.40;99.90;;;11.46;100.00;100402.25;5073460;28;20139;-70
2022/04/05 03:45:37;;;;;;;28.00;14.52;;;11.40;99.90;;;11.74;100.00;100424.78;5091134;28;20481;-70
2022/04/05 03:48:08;;;;;;;29.20;14.68;;;11.50;99.90;;;11.57;100.00;100425.94;5074402;28;20231;-70
2022/04/05 03:50:36;;;;;;;33.75;14.40;;;11.30;99.90;;;11.57;100.00;100425.94;5074924;28;20066;-70
2022/04/05 03:53:05;;;;;;;27.92;14.35;;;11.40;99.90;;;11.60;100.00;100450.59;5072286;28;20048;-70
2022/04/05 03:55:35;;;;;;;32.30;14.80;;;11.40;99.90;;;11.62;100.00;100424.94;5072604;28;20063;-70
2022/04/05 03:58:07;;;;;;;27.88;15.25;;;11.40;99.90;;;11.63;100.00;100429.34;5072549;28;20478;-70
2022/04/05 04:00:35;;;;;;;33.67;15.13;;;11.50;99.90;;;11.60;100.00;100424.09;5072698;28;20048;-70
2022/04/05 04:03:28;;;;;;;31.55;14.95;;;11.40;99.90;;;11.59;100.00;100421.47;5073690;28;20048;-70
2022/04/05 04:05:57;;;;;;;30.08;15.13;;;11.40;99.90;;;11.62;100.00;100422.31;5073836;28;20052;-70
2022/04/05 04:08:25;;;;;;;30.30;14.80;;;11.40;99.90;;;10.92;100.00;100322.81;5089650;28;20044;-81
2022/04/05 04:10:54;;;;;;;28.80;13.10;;;11.40;99.90;;;11.58;100.00;100422.38;5089189;28;20135;-70
2022/04/05 04:13:26;;;;;;;26.55;13.88;;;11.40;99.90;;;11.50;100.00;100418.94;5071973;28;20071;-73
2022/04/05 04:15:57;;;;;;;25.02;13.63;;;11.30;99.90;;;11.58;100.00;100422.38;5072325;28;20045;-72
2022/04/05 04:18:29;;;;;;;;;;;11.40;99.90;;;11.50;100.00;100425.13;5072570;28;20494;-74
2022/04/05 04:20:58;;;;;;;27.80;13.43;;;11.30;99.90;;;11.51;100.00;100421.59;5071870;28;19920;-71
2022/04/05 04:23:27;;;;;;;30.80;13.75;;;11.40;99.90;;;11.29;100.00;100384.84;5089191;28;20098;-71
2022/04/05 04:25:57;;;;;;;24.43;13.17;;;11.20;99.90;;;11.50;100.00;100409.25;5072082;28;20068;-70
2022/04/05 04:28:26;;;;;;;23.63;12.88;;;11.30;99.90;;;11.53;100.00;100414.50;5072166;28;20291;-70
2022/04/05 04:30:56;;;;;;;22.50;12.35;;;11.30;99.90;;;11.57;100.00;100416.22;5089061;28;20561;-71
2022/04/05 04:33:25;;;;;;;23.20;12.55;;;11.40;99.90;;;11.53;100.00;100406.56;5073048;28;20082;-70
2022/04/05 04:35:55;;;;;;;25.92;12.77;;;11.40;99.90;;;11.66;100.00;100424.03;5088910;28;20044;-71
2022/04/05 04:38:23;;;;;;;22.58;12.73;;;11.50;99.90;;;11.56;100.00;100400.31;5073358;28;20053;-70
2022/04/05 04:40:52;;;;;;;20.13;12.50;;;11.40;99.90;;;11.63;100.00;100417.88;5073387;28;20102;-70
2022/04/05 04:43:23;;;;;;;21.50;12.70;;;11.40;99.90;;;11.34;100.00;100375.94;5073199;28;20094;-70
2022/04/05 04:45:53;;;;;;;22.20;12.20;;;11.50;99.90;;;11.64;100.00;100419.63;5073069;28;20051;-70
2022/04/05 04:48:22;;;;;;;19.30;11.85;;;11.50;99.90;;;11.58;100.00;100417.94;5072983;28;20044;-70
2022/04/05 04:50:51;;;;;;;21.83;11.77;;;11.40;99.90;;;11.58;100.00;100428.53;5073080;28;20045;-70
2022/04/05 04:53:21;;;;;;;18.65;12.18;;;11.40;99.90;;;11.62;100.00;100419.66;5072919;28;20475;-70
2022/04/05 04:55:50;;;;;;;25.83;12.00;;;11.40;99.90;;;11.65;100.00;100426.69;5072977;28;20040;-70
2022/04/05 04:58:37;;;;;;;21.00;11.45;;;11.40;99.90;;;11.50;100.00;100422.47;5071959;28;20203;-70
2022/04/05 05:01:06;;;;;;;22.45;12.30;;;11.40;99.90;;;11.61;100.00;100422.34;5073179;28;20040;-70
2022/04/05 05:03:35;;;;;;;19.67;11.23;;;11.40;99.90;;;11.61;100.00;100406.44;5071902;28;20451;-70
2022/04/05 05:06:04;;;;;;;19.95;11.52;;;11.50;99.90;;;11.69;100.00;100420.47;5072726;28;20040;-70
2022/04/05 05:08:34;;;;;;;22.13;12.00;;;11.50;99.90;;;11.64;100.00;100419.63;5072980;28;20040;-70
2022/04/05 05:11:03;;;;;;;26.25;11.95;;;11.50;99.90;;;11.60;100.00;100416.16;5072775;28;20044;-70
2022/04/05 05:13:32;;;;;;;25.25;11.10;;;11.50;99.90;;;11.55;100.00;100411.81;5072603;28;20040;-70
2022/04/05 05:16:01;;;;;;;21.23;11.65;;;11.40;99.90;;;11.72;100.00;100423.94;5073191;28;20041;-70
2022/04/05 05:18:29;;;;;;;18.52;11.57;;;11.50;99.90;;;11.77;100.00;100427.38;5072907;28;20090;-70
2022/04/05 05:20:58;;;;;;;14.90;11.35;;;11.60;99.90;;;11.78;100.00;100423.84;5072964;28;20052;-69
2022/04/05 05:23:26;;;;;;;24.55;12.70;;;11.60;99.90;;;11.81;99.79;100438.78;5073169;28;20048;-69
2022/04/05 05:25:56;;;;;;;20.70;11.30;;;11.60;99.90;;;11.70;99.90;100433.69;5072835;28;20079;-69
2022/04/05 05:28:24;;;;;;;19.27;10.90;;;11.60;99.90;;;11.64;100.00;100433.75;5071600;28;20106;-69
2022/04/05 05:30:53;;;;;;;20.15;11.07;;;11.50;99.90;;;11.66;100.00;100434.63;5072612;28;20044;-70
2022/04/05 05:33:21;;;;;;;21.67;11.48;;;11.50;99.90;;;11.71;99.89;100434.56;5074006;28;20394;-70
2022/04/05 05:35:50;;;;;;;29.58;11.63;;;11.50;99.90;;;11.69;99.98;100442.53;5076208;28;20461;-69
2022/04/05 05:38:19;;;;;;;20.77;10.77;;;11.50;99.90;;;11.77;99.83;100439.75;5076521;28;20054;-69
2022/04/05 05:40:47;;;;;;;19.25;10.77;;;11.50;99.90;;;11.75;99.55;100434.47;5075112;28;20123;-69
2022/04/05 05:43:17;;;;;;;22.63;10.95;;;11.60;99.90;;;11.65;99.50;100440.81;5076048;28;20040;-70
2022/04/05 05:45:45;;;;;;;21.52;9.98;;;11.50;99.90;;;11.73;99.35;100446.88;5075902;28;20498;-69
2022/04/05 05:48:14;;;;;;;20.40;10.65;;;11.50;99.90;;;11.71;99.10;100446.03;5076232;28;20060;-69
2022/04/05 05:50:42;;;;;;;23.70;10.88;;;11.50;99.90;;;11.62;99.02;100435.53;5075989;28;20470;-69
2022/04/05 05:53:11;;;;;;;18.88;10.13;;;11.50;99.90;;;11.68;98.95;100439.91;5075911;28;20041;-69
2022/04/05 05:55:40;;;;;;;21.13;10.30;;;11.60;99.90;;;11.66;99.25;100445.22;5075955;28;20044;-69
2022/04/05 05:58:08;;;;;;;22.92;9.93;;;11.50;99.90;;;11.68;99.21;100446.09;5075884;28;20058;-70
2022/04/05 06:00:38;;;;;;;19.02;9.40;;;11.50;99.90;;;11.74;98.83;100440.69;5076066;28;20044;-69
2022/04/05 06:03:07;;;;;;;19.57;10.07;;;11.60;99.90;;;11.73;98.79;100449.53;5076364;28;20094;-69
2022/04/05 06:05:36;;;;;;;21.58;9.25;;;11.50;99.90;;;11.62;98.71;100447.91;5075870;28;20633;-69
2022/04/05 06:08:05;;;;;;;21.40;10.07;;;11.50;99.90;;;11.70;99.14;100446.06;5075700;28;20052;-69
2022/04/05 06:10:33;;;;;;;16.50;9.70;;;11.50;99.90;;;11.76;98.50;100454.78;5076133;28;20408;-70
2022/04/05 06:13:02;;;;;;;24.60;10.20;;;11.60;99.90;;;11.77;98.46;100451.22;5075784;28;20049;-69
2022/04/05 06:15:31;;;;;;;19.23;9.13;;;11.60;99.90;;;11.79;98.44;100459.16;5075767;28;20064;-69
2022/04/05 06:18:01;;;;;;;17.85;9.13;;;11.60;99.90;;;11.73;98.11;100461.88;5075773;28;20036;-70
2022/04/05 06:20:29;;;;;;;17.63;9.63;;;11.50;99.90;;;11.80;98.02;100460.91;5075414;28;20486;-70
2022/04/05 06:23:00;;;;;;;15.20;9.23;;;11.60;99.90;;;11.76;98.02;100445.97;5075449;28;20368;-70
2022/04/05 06:25:31;;;;;;;15.70;8.38;;;11.60;99.90;;;11.63;98.09;100442.56;5075999;28;20041;-70
2022/04/05 06:28:02;;;;;;;20.58;9.80;;;11.60;99.90;;;11.79;97.82;100462.69;5075391;28;20465;-70
2022/04/05 06:30:32;;;;;;;17.83;8.95;;;11.60;99.90;;;11.78;97.83;100462.72;5075421;28;20037;-70
2022/04/05 06:33:11;;;;;;;16.23;9.48;;;11.60;99.90;;;11.37;97.61;100385.63;5075493;28;20055;-70
2022/04/05 06:35:41;;;;;;;16.83;9.05;;;11.60;99.90;;;11.77;97.86;100464.47;5075223;28;20521;-70
2022/04/05 06:38:10;;;;;;;20.88;8.65;;;11.60;99.90;;;11.78;97.84;100474.19;5075255;28;20044;-70
2022/04/05 06:40:41;;;;;;;23.00;10.05;;;11.60;99.90;;;11.83;97.74;100474.09;5075085;28;20045;-77
2022/04/05 06:43:10;;;;;;;18.05;8.98;;;11.60;99.90;;;11.87;97.62;100473.16;5074837;28;20059;-70
2022/04/05 06:45:39;;;;;;;17.15;9.20;;;11.70;99.90;;;11.95;97.09;100475.66;5075138;28;20470;-69
2022/04/05 06:48:09;;;;;;;19.40;9.60;;;11.80;99.90;;;11.97;96.88;100476.53;5074863;28;20044;-70
2022/04/05 06:50:39;;;;;;;19.10;8.50;;;11.70;99.90;;;11.92;96.69;100479.28;5075059;28;20434;-69
2022/04/05 06:53:10;;;;;;;18.02;8.00;;;11.70;99.90;;;11.89;96.59;100481.06;5073407;28;20048;-70
2022/04/05 06:55:39;;;;;;;14.05;7.82;;;11.70;99.90;;;11.98;96.83;100488.91;5073866;28;20056;-70
2022/04/05 06:58:09;;;;;;;18.00;8.75;;;11.70;99.90;;;12.00;96.47;100477.34;5073735;28;20052;-69
2022/04/05 07:00:38;;;;;;;16.73;8.20;;;11.80;99.90;;;12.05;96.27;100485.22;5074664;28;20555;-69
2022/04/05 07:03:08;;;;;;;21.67;10.07;;;11.90;99.90;;;11.95;96.16;100478.31;5074635;28;20391;-70
2022/04/05 07:05:37;;;;;;;14.95;7.78;;;11.80;99.90;;;12.07;96.26;100494.03;5074681;28;20040;-70
2022/04/05 07:08:06;;;;;;;18.92;8.27;;;11.80;99.90;;;12.05;96.24;100498.47;5074567;28;20409;-76
2022/04/05 07:10:35;;;;;;;15.57;8.70;;;11.80;99.90;;;12.07;95.96;100494.03;5074496;28;20040;-77
2022/04/05 07:13:04;;;;;;;14.82;8.38;;;11.90;99.90;;;12.05;95.78;100494.06;5074720;28;20060;-75
2022/04/05 07:15:32;;;;;;;14.88;8.55;;;11.90;99.90;;;12.13;95.60;100496.59;5074458;28;20048;-75
2022/04/05 07:18:01;;;;;;;14.45;7.70;;;11.90;99.90;;;12.26;95.24;100495.47;5074361;28;20075;-75
2022/04/05 07:20:34;;;;;;;13.60;7.75;;;12.00;99.90;;;12.24;94.95;100490.19;5073432;28;20140;-75
2022/04/05 07:23:03;;;;;;;;;;;12.10;99.90;;;12.20;94.78;100503.53;5074744;28;20051;-79
2022/04/05 07:25:31;;;;;;;11.63;7.43;;;12.00;99.90;;;12.29;94.64;100496.28;5074281;28;20335;-70
2022/04/05 07:28:02;;;;;;;9.82;7.63;;;12.10;99.90;;;12.34;94.50;100490.91;5074282;28;20051;-70
2022/04/05 07:30:30;;;;;;;14.32;7.90;;;12.10;99.90;;;12.44;94.32;100503.13;5074447;28;20080;-70
2022/04/05 07:32:59;;;;;;;15.32;7.85;;;12.20;99.90;;;12.52;94.06;100502.06;5073983;28;20056;-69
2022/04/05 07:35:27;;;;;;;18.38;8.05;;;12.30;99.90;;;12.58;93.66;100504.59;5074130;28;20041;-69
2022/04/05 07:37:57;;;;;;;14.68;7.90;;;12.40;99.90;;;12.61;93.42;100511.63;5073001;28;20064;-69
2022/04/05 07:40:47;;;;;;;17.63;8.02;;;12.40;99.90;;;12.66;93.10;100502.69;5074027;28;20452;-69
2022/04/05 07:43:15;;;;;;;16.80;7.78;;;12.50;99.90;;;12.61;93.21;100501.91;5073763;28;20115;-70
2022/04/05 07:45:44;;;;;;;15.13;8.23;;;12.50;99.90;;;12.68;93.21;100497.34;5074221;28;20067;-69
2022/04/05 07:48:13;;;;;;;15.38;8.30;;;12.50;99.90;;;12.63;93.34;100501.88;5073678;28;20044;-68
2022/04/05 07:50:41;;;;;;;12.70;7.78;;;12.40;99.90;;;12.57;93.18;100497.56;5073539;28;20048;-66
2022/04/05 07:53:13;;;;;;;;;;;12.40;99.90;;;12.53;93.50;100481.72;5073880;28;20049;-68
2022/04/05 07:55:41;;;;;;;11.25;7.68;;;12.50;99.90;;;12.61;93.02;100491.28;5073047;28;20369;-68
2022/04/05 07:58:10;;;;;;;22.08;8.48;;;12.50;99.90;;;12.52;92.92;100486.13;5073890;28;20053;-68
2022/04/05 08:00:39;;;;;;;14.10;8.30;;;12.40;99.90;;;12.63;93.67;100497.44;5073807;28;20389;-67
2022/04/05 08:03:08;;;;;;;15.93;8.50;;;12.40;99.90;;;12.62;93.61;100506.28;5073739;28;20044;-68
2022/04/05 08:05:37;;;;;;;15.68;7.93;;;12.40;99.90;;;12.62;93.58;100502.75;5073475;28;20045;-68
2022/04/05 08:08:06;;;;;;;18.42;8.25;;;12.40;99.90;;;12.59;93.58;100497.53;5073649;28;20060;-67
2022/04/05 08:10:36;;;;;;;13.93;7.85;;;12.40;99.90;;;12.59;93.46;100471.88;5073465;28;20473;-68
2022/04/05 08:13:07;;;;;;;14.25;7.72;;;12.50;99.90;;;11.97;93.56;100378.47;5073417;28;20444;-67
2022/04/05 08:15:36;;;;;;;12.20;7.78;;;12.50;99.90;;;12.67;93.66;100503.56;5073763;28;20074;-67
2022/04/05 08:18:04;;;;;;;15.95;7.82;;;12.50;99.90;;;12.67;93.57;100501.81;5072358;28;20053;-68
2022/04/05 08:20:34;;;;;;;18.75;8.20;;;12.50;99.90;;;12.64;93.73;100499.19;5073335;28;20037;-68
2022/04/05 08:23:02;;;;;;;14.88;7.82;;;12.40;99.90;;;12.65;93.73;100495.66;5073789;28;20045;-68
2022/04/05 08:25:31;;;;;;;12.30;7.80;;;12.50;99.90;;;12.55;93.89;100507.31;5073520;28;20098;-68
2022/04/05 08:28:01;;;;;;;11.75;7.60;;;12.40;99.90;;;12.68;93.91;100515.91;5073190;28;20044;-68
2022/04/05 08:30:30;;;;;;;15.27;8.18;;;12.40;99.90;;;12.70;94.02;100511.44;5073736;28;20041;-67
2022/04/05 08:32:59;;;;;;;16.25;7.75;;;12.50;99.90;;;12.65;94.21;100519.53;5073074;28;20028;-68
2022/04/05 08:35:28;;;;;;;13.70;7.85;;;12.40;99.90;;;12.67;93.97;100516.84;5072911;28;20040;-67
2022/04/05 08:37:57;;;;;;;10.32;7.30;;;12.50;99.90;;;12.63;93.91;100517.78;5073043;28;20058;-69
2022/04/05 08:40:26;;;;;;;11.88;7.45;;;12.50;99.90;;;12.71;93.58;100518.53;5071998;28;20571;-68
2022/04/05 08:42:57;;;;;;;13.48;7.72;;;12.50;99.90;;;12.71;93.48;100518.53;5073601;28;20055;-68
2022/04/05 08:45:28;;;;;;;14.45;8.00;;;12.50;99.90;;;12.67;93.85;100508.88;5073053;28;20567;-68
2022/04/05 08:48:00;;;;;;;15.10;7.80;;;12.50;99.90;;;12.70;93.89;100525.59;5072002;28;20536;-68
2022/04/05 08:50:31;;;;;;;16.35;7.97;;;12.50;99.90;;;12.64;93.84;100519.53;5073284;28;20494;-68
2022/04/05 08:53:01;;;;;;;15.88;8.02;;;12.50;99.90;;;12.62;94.33;100524.88;5073214;28;20068;-68
2022/04/05 08:55:36;;;;;;;11.95;7.28;;;12.40;99.90;;;12.62;94.48;100527.53;5071917;28;20049;-67
2022/04/05 08:58:05;;;;;;;13.88;7.70;;;12.40;99.90;;;12.61;94.83;100527.56;5073166;28;20052;-68
2022/04/05 09:00:35;;;;;;;18.63;7.65;;;12.40;99.90;;;12.59;94.36;100524.06;5072696;28;20459;-68
2022/04/05 09:03:06;;;;;;;15.65;7.95;;;12.40;99.90;;;12.63;94.28;100531.94;5072968;28;20060;-68
2022/04/05 09:05:37;;;;;;;14.23;7.78;;;12.40;99.90;;;12.64;94.20;100527.50;5071836;28;20079;-67
2022/04/05 09:08:21;;;;;;;;;;;12.50;99.90;;;12.60;94.46;100523.16;5076220;28;20047;-68
2022/04/05 09:10:53;;;;;;;14.90;7.55;;;12.40;99.90;;;12.62;94.02;100534.59;5076688;28;19920;-68
2022/04/05 09:13:26;;;;;;;15.13;8.18;;;12.50;99.90;;;12.56;94.21;100534.75;5075722;28;20052;-68
2022/04/05 09:15:59;;;;;;;12.35;7.68;;;12.40;99.90;;;12.70;94.39;100540.66;5076688;28;20094;-68
2022/04/05 09:18:32;;;;;;;13.73;7.50;;;12.50;99.90;;;12.67;93.91;100535.41;5076878;28;20044;-68
2022/04/05 09:21:02;;;;;;;12.55;6.57;;;12.50;99.90;;;12.67;93.88;100538.94;5076922;28;20124;-68
2022/04/05 09:23:33;;;;;;;16.27;7.13;;;12.50;99.90;;;12.63;94.08;100536.38;5076531;28;20387;-68
2022/04/05 09:26:05;;;;;;;13.23;6.88;;;12.40;99.90;;;12.36;94.14;100497.94;5076506;28;20040;-68
2022/04/05 09:28:37;;;;;;;13.48;7.22;;;12.40;99.90;;;12.69;94.25;100547.75;5076509;28;20045;-67
2022/04/05 09:31:10;;;;;;;13.73;7.40;;;12.50;99.90;;;12.62;94.48;100529.28;5075378;28;20134;-68
2022/04/05 09:33:40;;;;;;;20.63;8.23;;;12.50;99.90;;;12.77;94.61;100544.97;5075995;28;20048;-67
2022/04/05 09:36:13;;;;;;;23.50;8.48;;;12.60;99.90;;;12.80;94.18;100547.53;5076100;28;20052;-68
2022/04/05 09:38:45;;;;;;;15.05;7.95;;;12.60;99.90;;;12.80;94.20;100544.88;5076509;28;20053;-68
2022/04/05 09:41:20;;;;;;;11.60;7.40;;;12.60;99.90;;;12.81;93.61;100557.28;5076429;28;20044;-67
2022/04/05 09:43:59;;;;;;;15.05;7.10;;;12.60;99.90;;;12.84;93.58;100546.59;5076245;28;20443;-68
2022/04/05 09:46:30;;;;;;;16.55;7.35;;;12.60;99.90;;;12.78;93.73;100532.53;5076266;28;20154;-68
2022/04/05 09:49:11;;;;;;;15.30;8.20;;;12.70;99.90;;;12.98;93.54;100551.63;5075053;28;20529;-68
2022/04/05 09:51:44;;;;;;;;;;;12.80;99.90;;;12.93;93.54;100549.06;5076312;28;20513;-68
2022/04/05 09:54:27;;;;;;;12.73;7.80;;;12.80;99.90;;;12.86;94.11;100566.00;5076155;28;19920;-68
2022/04/05 09:57:06;;;;;;;13.93;7.93;;;12.70;99.90;;;12.87;94.39;100550.97;5074890;28;20478;-68
2022/04/05 09:59:41;;;;;;;16.30;7.43;;;12.70;99.90;;;12.88;94.69;100564.22;5075873;28;20440;-67
2022/04/05 10:02:14;;;;;;;14.40;7.10;;;12.70;99.90;;;12.90;95.21;100556.19;5075833;28;20048;-67
2022/04/05 10:05:05;;;;;;;17.23;7.88;;;12.70;99.90;;;12.37;95.44;100469.63;5076037;28;20131;-69
2022/04/05 10:07:35;;;;;;;16.02;7.68;;;12.70;99.90;;;12.86;95.66;100554.50;5075841;28;20090;-67
2022/04/05 10:10:07;;;;;;;16.35;7.85;;;12.70;99.90;;;12.87;96.06;100559.81;5091618;28;20045;-68
2022/04/05 10:12:41;;;;;;;17.00;8.55;;;12.70;99.90;;;12.94;95.96;100557.91;5075816;28;20110;-67